sensor_id;sensor_type;location;lat;lon;timestamp;P1;durP1;ratioP1;P2;durP2;ratioP2
25531;SDS011;13429;48.816;9.118;2023-08-01T00:01:29;7.28;;;3.03;;
25531;SDS011;13429;48.816;9.118;2023-08-01T00:03:58;5.30;;;2.70;;
25531;SDS011;13429;48.816;9.118;2023-08-01T00:06:24;5.75;;;3.10;;
25531;SDS011;13429;48.816;9.118;2023-08-01T00:08:50;6.25;;;2.95;;
25531;SDS011;13429;48.816;9.118;2023-08-01T00:11:16;7.43;;;3.33;;
25531;SDS011;13429;48.816;9.118;2023-08-01T00:13:43;6.05;;;2.05;;
25531;SDS011;13429;48.816;9.118;2023-08-01T00:16:09;7.32;;;3.30;;
25531;SDS011;13429;48.816;9.118;2023-08-01T00:18:35;4.90;;;2.70;;
25531;SDS011;13429;48.816;9.118;2023-08-01T00:21:01;8.38;;;2.72;;
25531;SDS011;13429;48.816;9.118;2023-08-01T00:23:27;4.55;;;2.80;;
25531;SDS011;13429;48.816;9.118;2023-08-01T00:25:54;5.78;;;3.38;;
25531;SDS011;13429;48.816;9.118;2023-08-01T00:28:23;4.13;;;2.83;;
25531;SDS011;13429;48.816;9.118;2023-08-01T00:30:49;4.70;;;2.80;;
25531;SDS011;13429;48.816;9.118;2023-08-01T00:33:15;6.70;;;2.35;;
25531;SDS011;13429;48.816;9.118;2023-08-01T00:35:41;5.78;;;3.03;;
25531;SDS011;13429;48.816;9.118;2023-08-01T00:38:07;5.20;;;2.67;;
25531;SDS011;13429;48.816;9.118;2023-08-01T00:40:33;4.72;;;2.30;;
25531;SDS011;13429;48.816;9.118;2023-08-01T00:42:59;4.72;;;2.90;;
25531;SDS011;13429;48.816;9.118;2023-08-01T00:45:26;4.35;;;2.50;;
25531;SDS011;13429;48.816;9.118;2023-08-01T00:47:55;11.48;;;2.53;;
25531;SDS011;13429;48.816;9.118;2023-08-01T00:50:22;13.52;;;3.45;;
25531;SDS011;13429;48.816;9.118;2023-08-01T00:52:52;8.93;;;3.35;;
25531;SDS011;13429;48.816;9.118;2023-08-01T00:55:18;6.70;;;3.42;;
25531;SDS011;13429;48.816;9.118;2023-08-01T00:57:44;4.80;;;2.85;;
25531;SDS011;13429;48.816;9.118;2023-08-01T01:00:10;4.43;;;2.67;;
25531;SDS011;13429;48.816;9.118;2023-08-01T01:02:36;3.65;;;2.65;;
25531;SDS011;13429;48.816;9.118;2023-08-01T01:05:03;5.43;;;3.30;;
25531;SDS011;13429;48.816;9.118;2023-08-01T01:07:30;5.68;;;3.13;;
25531;SDS011;13429;48.816;9.118;2023-08-01T01:09:57;6.03;;;3.60;;
25531;SDS011;13429;48.816;9.118;2023-08-01T01:12:23;7.07;;;3.38;;
25531;SDS011;13429;48.816;9.118;2023-08-01T01:14:49;6.05;;;3.03;;
25531;SDS011;13429;48.816;9.118;2023-08-01T01:17:15;6.13;;;2.55;;
25531;SDS011;13429;48.816;9.118;2023-08-01T01:19:41;5.80;;;3.20;;
25531;SDS011;13429;48.816;9.118;2023-08-01T01:22:07;9.10;;;3.47;;
25531;SDS011;13429;48.816;9.118;2023-08-01T01:24:35;6.72;;;3.42;;
25531;SDS011;13429;48.816;9.118;2023-08-01T01:27:01;8.35;;;3.70;;
25531;SDS011;13429;48.816;9.118;2023-08-01T01:29:29;8.05;;;3.30;;
25531;SDS011;13429;48.816;9.118;2023-08-01T01:31:56;6.70;;;3.05;;
25531;SDS011;13429;48.816;9.118;2023-08-01T01:34:22;7.40;;;3.38;;
25531;SDS011;13429;48.816;9.118;2023-08-01T01:36:48;11.73;;;3.90;;
25531;SDS011;13429;48.816;9.118;2023-08-01T01:39:14;5.22;;;3.47;;
25531;SDS011;13429;48.816;9.118;2023-08-01T01:41:40;9.38;;;3.33;;
25531;SDS011;13429;48.816;9.118;2023-08-01T01:44:06;8.43;;;3.05;;
25531;SDS011;13429;48.816;9.118;2023-08-01T01:46:32;9.75;;;3.72;;
25531;SDS011;13429;48.816;9.118;2023-08-01T01:48:58;6.43;;;3.22;;
25531;SDS011;13429;48.816;9.118;2023-08-01T01:51:25;5.88;;;3.53;;
25531;SDS011;13429;48.816;9.118;2023-08-01T01:53:51;6.20;;;3.35;;
25531;SDS011;13429;48.816;9.118;2023-08-01T01:56:17;5.30;;;2.53;;
25531;SDS011;13429;48.816;9.118;2023-08-01T01:58:43;7.38;;;3.38;;
25531;SDS011;13429;48.816;9.118;2023-08-01T02:01:09;8.38;;;3.38;;
25531;SDS011;13429;48.816;9.118;2023-08-01T02:03:35;6.43;;;3.00;;
25531;SDS011;13429;48.816;9.118;2023-08-01T02:06:01;6.82;;;3.22;;
25531;SDS011;13429;48.816;9.118;2023-08-01T02:08:31;7.07;;;2.95;;
25531;SDS011;13429;48.816;9.118;2023-08-01T02:10:57;5.18;;;3.25;;
25531;SDS011;13429;48.816;9.118;2023-08-01T02:13:26;6.53;;;2.95;;
25531;SDS011;13429;48.816;9.118;2023-08-01T02:15:53;5.15;;;2.55;;
25531;SDS011;13429;48.816;9.118;2023-08-01T02:18:19;5.40;;;3.20;;
25531;SDS011;13429;48.816;9.118;2023-08-01T02:20:45;7.68;;;3.97;;
25531;SDS011;13429;48.816;9.118;2023-08-01T02:23:11;11.02;;;3.08;;
25531;SDS011;13429;48.816;9.118;2023-08-01T02:25:40;7.13;;;3.30;;
25531;SDS011;13429;48.816;9.118;2023-08-01T02:28:06;6.10;;;3.72;;
25531;SDS011;13429;48.816;9.118;2023-08-01T02:30:33;8.55;;;4.07;;
25531;SDS011;13429;48.816;9.118;2023-08-01T02:32:59;7.13;;;3.00;;
25531;SDS011;13429;48.816;9.118;2023-08-01T02:35:25;6.72;;;3.25;;
25531;SDS011;13429;48.816;9.118;2023-08-01T02:37:53;4.90;;;3.15;;
25531;SDS011;13429;48.816;9.118;2023-08-01T02:40:19;6.50;;;3.00;;
25531;SDS011;13429;48.816;9.118;2023-08-01T02:42:45;13.77;;;3.10;;
25531;SDS011;13429;48.816;9.118;2023-08-01T02:45:11;6.20;;;3.17;;
25531;SDS011;13429;48.816;9.118;2023-08-01T02:47:37;7.32;;;3.70;;
25531;SDS011;13429;48.816;9.118;2023-08-01T02:50:03;5.15;;;2.95;;
25531;SDS011;13429;48.816;9.118;2023-08-01T02:52:29;7.85;;;3.05;;
25531;SDS011;13429;48.816;9.118;2023-08-01T02:54:55;6.57;;;3.92;;
25531;SDS011;13429;48.816;9.118;2023-08-01T02:57:21;4.68;;;2.72;;
25531;SDS011;13429;48.816;9.118;2023-08-01T02:59:47;5.45;;;2.50;;
25531;SDS011;13429;48.816;9.118;2023-08-01T03:02:13;5.13;;;3.40;;
25531;SDS011;13429;48.816;9.118;2023-08-01T03:04:39;6.32;;;3.60;;
25531;SDS011;13429;48.816;9.118;2023-08-01T03:07:05;6.80;;;3.17;;
25531;SDS011;13429;48.816;9.118;2023-08-01T03:09:32;6.35;;;3.25;;
25531;SDS011;13429;48.816;9.118;2023-08-01T03:11:58;5.05;;;3.10;;
25531;SDS011;13429;48.816;9.118;2023-08-01T03:14:24;6.93;;;3.75;;
25531;SDS011;13429;48.816;9.118;2023-08-01T03:16:50;7.43;;;3.70;;
25531;SDS011;13429;48.816;9.118;2023-08-01T03:19:16;4.97;;;2.60;;
25531;SDS011;13429;48.816;9.118;2023-08-01T03:21:42;7.22;;;3.80;;
25531;SDS011;13429;48.816;9.118;2023-08-01T03:24:08;7.00;;;3.88;;
25531;SDS011;13429;48.816;9.118;2023-08-01T03:26:37;8.77;;;3.03;;
25531;SDS011;13429;48.816;9.118;2023-08-01T03:29:03;8.35;;;3.35;;
25531;SDS011;13429;48.816;9.118;2023-08-01T03:31:30;5.60;;;3.63;;
25531;SDS011;13429;48.816;9.118;2023-08-01T03:33:56;6.47;;;3.10;;
25531;SDS011;13429;48.816;9.118;2023-08-01T03:36:25;7.25;;;3.20;;
25531;SDS011;13429;48.816;9.118;2023-08-01T03:38:51;5.40;;;2.83;;
25531;SDS011;13429;48.816;9.118;2023-08-01T03:41:17;6.65;;;3.33;;
25531;SDS011;13429;48.816;9.118;2023-08-01T03:43:43;5.80;;;3.38;;
25531;SDS011;13429;48.816;9.118;2023-08-01T03:46:09;7.15;;;3.92;;
25531;SDS011;13429;48.816;9.118;2023-08-01T03:48:35;8.38;;;3.47;;
25531;SDS011;13429;48.816;9.118;2023-08-01T03:51:01;5.85;;;3.78;;
25531;SDS011;13429;48.816;9.118;2023-08-01T03:53:29;6.97;;;3.35;;
25531;SDS011;13429;48.816;9.118;2023-08-01T03:55:55;5.82;;;3.72;;
25531;SDS011;13429;48.816;9.118;2023-08-01T03:58:21;5.35;;;2.72;;
25531;SDS011;13429;48.816;9.118;2023-08-01T04:00:47;8.23;;;2.95;;
25531;SDS011;13429;48.816;9.118;2023-08-01T04:03:13;7.07;;;3.53;;
25531;SDS011;13429;48.816;9.118;2023-08-01T04:05:39;5.85;;;3.10;;
25531;SDS011;13429;48.816;9.118;2023-08-01T04:08:05;6.38;;;3.22;;
25531;SDS011;13429;48.816;9.118;2023-08-01T04:10:31;6.47;;;3.10;;
25531;SDS011;13429;48.816;9.118;2023-08-01T04:12:57;6.13;;;2.92;;
25531;SDS011;13429;48.816;9.118;2023-08-01T04:15:23;4.55;;;3.03;;
25531;SDS011;13429;48.816;9.118;2023-08-01T04:17:49;5.85;;;3.20;;
25531;SDS011;13429;48.816;9.118;2023-08-01T04:20:15;4.68;;;3.30;;
25531;SDS011;13429;48.816;9.118;2023-08-01T04:22:41;8.25;;;3.22;;
25531;SDS011;13429;48.816;9.118;2023-08-01T04:25:07;7.43;;;3.78;;
25531;SDS011;13429;48.816;9.118;2023-08-01T04:27:33;5.32;;;3.15;;
25531;SDS011;13429;48.816;9.118;2023-08-01T04:30:00;7.07;;;3.65;;
25531;SDS011;13429;48.816;9.118;2023-08-01T04:32:26;5.53;;;3.25;;
25531;SDS011;13429;48.816;9.118;2023-08-01T04:34:52;5.20;;;2.78;;
25531;SDS011;13429;48.816;9.118;2023-08-01T04:37:18;7.97;;;3.47;;
25531;SDS011;13429;48.816;9.118;2023-08-01T04:39:47;5.68;;;3.35;;
25531;SDS011;13429;48.816;9.118;2023-08-01T04:42:13;5.72;;;2.78;;
25531;SDS011;13429;48.816;9.118;2023-08-01T04:44:39;8.70;;;2.90;;
25531;SDS011;13429;48.816;9.118;2023-08-01T04:47:05;5.32;;;3.28;;
25531;SDS011;13429;48.816;9.118;2023-08-01T04:49:31;5.85;;;2.60;;
25531;SDS011;13429;48.816;9.118;2023-08-01T04:51:57;6.82;;;2.40;;
25531;SDS011;13429;48.816;9.118;2023-08-01T04:54:23;10.55;;;2.90;;
25531;SDS011;13429;48.816;9.118;2023-08-01T04:56:49;5.68;;;2.63;;
25531;SDS011;13429;48.816;9.118;2023-08-01T04:59:15;4.55;;;2.40;;
25531;SDS011;13429;48.816;9.118;2023-08-01T05:01:41;5.35;;;2.42;;
25531;SDS011;13429;48.816;9.118;2023-08-01T05:04:07;5.15;;;2.45;;
25531;SDS011;13429;48.816;9.118;2023-08-01T05:06:33;5.13;;;2.70;;
25531;SDS011;13429;48.816;9.118;2023-08-01T05:08:59;6.68;;;2.88;;
25531;SDS011;13429;48.816;9.118;2023-08-01T05:11:25;4.47;;;2.53;;
25531;SDS011;13429;48.816;9.118;2023-08-01T05:13:51;5.05;;;2.13;;
25531;SDS011;13429;48.816;9.118;2023-08-01T05:16:17;6.15;;;2.65;;
25531;SDS011;13429;48.816;9.118;2023-08-01T05:18:44;3.33;;;2.13;;
25531;SDS011;13429;48.816;9.118;2023-08-01T05:21:10;4.95;;;2.45;;
25531;SDS011;13429;48.816;9.118;2023-08-01T05:23:36;12.77;;;2.30;;
25531;SDS011;13429;48.816;9.118;2023-08-01T05:26:02;3.25;;;1.98;;
25531;SDS011;13429;48.816;9.118;2023-08-01T05:28:28;3.38;;;2.00;;
25531;SDS011;13429;48.816;9.118;2023-08-01T05:30:54;8.80;;;2.20;;
25531;SDS011;13429;48.816;9.118;2023-08-01T05:33:20;2.95;;;1.90;;
25531;SDS011;13429;48.816;9.118;2023-08-01T05:35:46;2.95;;;1.92;;
25531;SDS011;13429;48.816;9.118;2023-08-01T05:38:12;4.40;;;1.95;;
25531;SDS011;13429;48.816;9.118;2023-08-01T05:40:38;7.43;;;2.15;;
25531;SDS011;13429;48.816;9.118;2023-08-01T05:43:04;4.63;;;2.13;;
25531;SDS011;13429;48.816;9.118;2023-08-01T05:45:33;5.07;;;2.20;;
25531;SDS011;13429;48.816;9.118;2023-08-01T05:47:59;5.18;;;2.10;;
25531;SDS011;13429;48.816;9.118;2023-08-01T05:50:25;4.72;;;2.20;;
25531;SDS011;13429;48.816;9.118;2023-08-01T05:52:51;7.82;;;2.58;;
25531;SDS011;13429;48.816;9.118;2023-08-01T05:55:17;8.10;;;3.17;;
25531;SDS011;13429;48.816;9.118;2023-08-01T05:57:43;3.13;;;2.42;;
25531;SDS011;13429;48.816;9.118;2023-08-01T06:00:09;7.53;;;3.33;;
25531;SDS011;13429;48.816;9.118;2023-08-01T06:02:36;8.80;;;3.55;;
25531;SDS011;13429;48.816;9.118;2023-08-01T06:05:02;7.15;;;3.13;;
25531;SDS011;13429;48.816;9.118;2023-08-01T06:07:28;5.60;;;2.97;;
25531;SDS011;13429;48.816;9.118;2023-08-01T06:09:54;5.32;;;2.75;;
25531;SDS011;13429;48.816;9.118;2023-08-01T06:12:20;6.10;;;2.70;;
25531;SDS011;13429;48.816;9.118;2023-08-01T06:14:47;5.97;;;2.50;;
25531;SDS011;13429;48.816;9.118;2023-08-01T06:17:13;5.53;;;3.10;;
25531;SDS011;13429;48.816;9.118;2023-08-01T06:19:39;6.47;;;3.97;;
25531;SDS011;13429;48.816;9.118;2023-08-01T06:22:05;4.60;;;3.03;;
25531;SDS011;13429;48.816;9.118;2023-08-01T06:24:31;5.70;;;3.25;;
25531;SDS011;13429;48.816;9.118;2023-08-01T06:26:57;7.32;;;3.38;;
25531;SDS011;13429;48.816;9.118;2023-08-01T06:29:23;8.48;;;3.40;;
25531;SDS011;13429;48.816;9.118;2023-08-01T06:31:50;7.25;;;3.88;;
25531;SDS011;13429;48.816;9.118;2023-08-01T06:34:16;8.55;;;3.13;;
25531;SDS011;13429;48.816;9.118;2023-08-01T06:36:42;6.35;;;3.70;;
25531;SDS011;13429;48.816;9.118;2023-08-01T06:39:08;6.55;;;3.65;;
25531;SDS011;13429;48.816;9.118;2023-08-01T06:41:34;5.97;;;3.10;;
25531;SDS011;13429;48.816;9.118;2023-08-01T06:44:01;7.10;;;3.60;;
25531;SDS011;13429;48.816;9.118;2023-08-01T06:46:27;9.02;;;3.88;;
25531;SDS011;13429;48.816;9.118;2023-08-01T06:48:53;14.25;;;4.60;;
25531;SDS011;13429;48.816;9.118;2023-08-01T06:51:19;7.20;;;3.78;;
25531;SDS011;13429;48.816;9.118;2023-08-01T06:53:45;8.48;;;4.65;;
25531;SDS011;13429;48.816;9.118;2023-08-01T06:56:11;7.78;;;3.72;;
25531;SDS011;13429;48.816;9.118;2023-08-01T06:58:37;7.75;;;3.60;;
25531;SDS011;13429;48.816;9.118;2023-08-01T07:01:03;7.53;;;4.30;;
25531;SDS011;13429;48.816;9.118;2023-08-01T07:03:29;8.88;;;5.70;;
25531;SDS011;13429;48.816;9.118;2023-08-01T07:05:55;10.63;;;5.63;;
25531;SDS011;13429;48.816;9.118;2023-08-01T07:08:21;8.20;;;5.60;;
25531;SDS011;13429;48.816;9.118;2023-08-01T07:10:48;9.73;;;5.65;;
25531;SDS011;13429;48.816;9.118;2023-08-01T07:13:14;9.50;;;4.47;;
25531;SDS011;13429;48.816;9.118;2023-08-01T07:15:41;10.65;;;5.22;;
25531;SDS011;13429;48.816;9.118;2023-08-01T07:18:07;12.60;;;6.22;;
25531;SDS011;13429;48.816;9.118;2023-08-01T07:20:33;16.60;;;5.32;;
25531;SDS011;13429;48.816;9.118;2023-08-01T07:22:59;10.05;;;5.88;;
25531;SDS011;13429;48.816;9.118;2023-08-01T07:25:25;14.10;;;5.00;;
25531;SDS011;13429;48.816;9.118;2023-08-01T07:27:51;10.02;;;4.70;;
25531;SDS011;13429;48.816;9.118;2023-08-01T07:30:17;8.48;;;4.55;;
25531;SDS011;13429;48.816;9.118;2023-08-01T07:32:43;11.40;;;5.05;;
25531;SDS011;13429;48.816;9.118;2023-08-01T07:35:09;10.43;;;4.88;;
25531;SDS011;13429;48.816;9.118;2023-08-01T07:37:36;10.00;;;5.35;;
25531;SDS011;13429;48.816;9.118;2023-08-01T07:40:04;8.15;;;4.32;;
25531;SDS011;13429;48.816;9.118;2023-08-01T07:42:30;9.60;;;4.07;;
25531;SDS011;13429;48.816;9.118;2023-08-01T07:44:56;8.00;;;3.78;;
25531;SDS011;13429;48.816;9.118;2023-08-01T07:47:22;10.88;;;3.72;;
25531;SDS011;13429;48.816;9.118;2023-08-01T07:49:49;8.57;;;3.65;;
25531;SDS011;13429;48.816;9.118;2023-08-01T07:52:15;9.68;;;3.95;;
25531;SDS011;13429;48.816;9.118;2023-08-01T07:54:41;6.97;;;3.40;;
25531;SDS011;13429;48.816;9.118;2023-08-01T07:57:07;10.43;;;3.45;;
25531;SDS011;13429;48.816;9.118;2023-08-01T07:59:33;6.53;;;3.13;;
25531;SDS011;13429;48.816;9.118;2023-08-01T08:01:59;6.57;;;3.25;;
25531;SDS011;13429;48.816;9.118;2023-08-01T08:04:25;5.35;;;2.97;;
25531;SDS011;13429;48.816;9.118;2023-08-01T08:06:51;5.20;;;2.97;;
25531;SDS011;13429;48.816;9.118;2023-08-01T08:09:19;5.57;;;3.15;;
25531;SDS011;13429;48.816;9.118;2023-08-01T08:11:47;6.38;;;3.10;;
25531;SDS011;13429;48.816;9.118;2023-08-01T08:14:15;6.95;;;2.67;;
25531;SDS011;13429;48.816;9.118;2023-08-01T08:16:42;4.10;;;2.30;;
25531;SDS011;13429;48.816;9.118;2023-08-01T08:19:08;5.53;;;2.15;;
25531;SDS011;13429;48.816;9.118;2023-08-01T08:21:34;5.30;;;2.72;;
25531;SDS011;13429;48.816;9.118;2023-08-01T08:24:00;4.15;;;2.30;;
25531;SDS011;13429;48.816;9.118;2023-08-01T08:26:26;9.20;;;2.83;;
25531;SDS011;13429;48.816;9.118;2023-08-01T08:28:52;4.07;;;2.10;;
25531;SDS011;13429;48.816;9.118;2023-08-01T08:31:18;5.38;;;2.72;;
25531;SDS011;13429;48.816;9.118;2023-08-01T08:33:44;4.45;;;2.08;;
25531;SDS011;13429;48.816;9.118;2023-08-01T08:36:10;4.90;;;2.42;;
25531;SDS011;13429;48.816;9.118;2023-08-01T08:38:36;3.92;;;2.00;;
25531;SDS011;13429;48.816;9.118;2023-08-01T08:41:09;2.85;;;1.60;;
25531;SDS011;13429;48.816;9.118;2023-08-01T08:43:36;5.22;;;2.03;;
25531;SDS011;13429;48.816;9.118;2023-08-01T08:46:03;2.78;;;1.85;;
25531;SDS011;13429;48.816;9.118;2023-08-01T08:48:29;3.55;;;2.00;;
25531;SDS011;13429;48.816;9.118;2023-08-01T08:50:59;3.60;;;2.00;;
25531;SDS011;13429;48.816;9.118;2023-08-01T08:53:26;3.47;;;1.88;;
25531;SDS011;13429;48.816;9.118;2023-08-01T08:55:52;3.30;;;2.00;;
25531;SDS011;13429;48.816;9.118;2023-08-01T08:58:18;6.78;;;1.60;;
25531;SDS011;13429;48.816;9.118;2023-08-01T09:00:44;3.30;;;1.65;;
25531;SDS011;13429;48.816;9.118;2023-08-01T09:03:10;3.42;;;1.70;;
25531;SDS011;13429;48.816;9.118;2023-08-01T09:05:48;3.70;;;1.65;;
25531;SDS011;13429;48.816;9.118;2023-08-01T09:08:18;4.20;;;2.17;;
25531;SDS011;13429;48.816;9.118;2023-08-01T09:10:45;2.38;;;1.08;;
25531;SDS011;13429;48.816;9.118;2023-08-01T09:13:11;3.63;;;2.03;;
25531;SDS011;13429;48.816;9.118;2023-08-01T09:15:37;4.07;;;1.30;;
25531;SDS011;13429;48.816;9.118;2023-08-01T09:18:06;2.17;;;1.35;;
25531;SDS011;13429;48.816;9.118;2023-08-01T09:23:08;3.55;;;1.40;;
25531;SDS011;13429;48.816;9.118;2023-08-01T09:25:35;2.80;;;1.27;;
25531;SDS011;13429;48.816;9.118;2023-08-01T09:28:01;1.55;;;0.98;;
25531;SDS011;13429;48.816;9.118;2023-08-01T09:30:27;3.67;;;1.38;;
25531;SDS011;13429;48.816;9.118;2023-08-01T09:32:54;2.38;;;1.30;;
25531;SDS011;13429;48.816;9.118;2023-08-01T09:35:20;1.90;;;1.10;;
25531;SDS011;13429;48.816;9.118;2023-08-01T09:37:46;1.73;;;0.90;;
25531;SDS011;13429;48.816;9.118;2023-08-01T09:40:13;1.50;;;0.80;;
25531;SDS011;13429;48.816;9.118;2023-08-01T09:42:43;2.05;;;1.00;;
25531;SDS011;13429;48.816;9.118;2023-08-01T09:45:16;2.17;;;0.73;;
25531;SDS011;13429;48.816;9.118;2023-08-01T09:47:43;2.90;;;0.80;;
25531;SDS011;13429;48.816;9.118;2023-08-01T09:50:09;1.88;;;0.70;;
25531;SDS011;13429;48.816;9.118;2023-08-01T09:52:39;1.00;;;0.60;;
25531;SDS011;13429;48.816;9.118;2023-08-01T09:55:06;2.65;;;0.50;;
25531;SDS011;13429;48.816;9.118;2023-08-01T09:57:32;0.50;;;0.20;;
25531;SDS011;13429;48.816;9.118;2023-08-01T10:00:00;0.68;;;0.50;;
25531;SDS011;13429;48.816;9.118;2023-08-01T10:02:26;1.02;;;0.52;;
25531;SDS011;13429;48.816;9.118;2023-08-01T10:04:59;0.22;;;0.17;;
25531;SDS011;13429;48.816;9.118;2023-08-01T10:07:26;0.43;;;0.30;;
25531;SDS011;13429;48.816;9.118;2023-08-01T10:09:54;0.32;;;0.25;;
25531;SDS011;13429;48.816;9.118;2023-08-01T10:12:21;0.25;;;0.10;;
25531;SDS011;13429;48.816;9.118;2023-08-01T10:14:49;1.98;;;0.20;;
25531;SDS011;13429;48.816;9.118;2023-08-01T10:17:16;0.47;;;0.40;;
25531;SDS011;13429;48.816;9.118;2023-08-01T10:19:42;3.20;;;0.32;;
25531;SDS011;13429;48.816;9.118;2023-08-01T10:22:08;0.40;;;0.15;;
25531;SDS011;13429;48.816;9.118;2023-08-01T10:24:35;0.45;;;0.22;;
25531;SDS011;13429;48.816;9.118;2023-08-01T10:27:11;0.43;;;0.20;;
25531;SDS011;13429;48.816;9.118;2023-08-01T10:29:38;0.70;;;0.30;;
25531;SDS011;13429;48.816;9.118;2023-08-01T10:32:06;0.82;;;0.32;;
25531;SDS011;13429;48.816;9.118;2023-08-01T10:34:32;1.98;;;0.30;;
25531;SDS011;13429;48.816;9.118;2023-08-01T10:36:58;0.90;;;0.47;;
25531;SDS011;13429;48.816;9.118;2023-08-01T10:39:26;1.52;;;0.45;;
25531;SDS011;13429;48.816;9.118;2023-08-01T10:44:24;1.00;;;0.47;;
25531;SDS011;13429;48.816;9.118;2023-08-01T10:46:54;5.18;;;0.50;;
25531;SDS011;13429;48.816;9.118;2023-08-01T10:49:32;0.60;;;0.38;;
25531;SDS011;13429;48.816;9.118;2023-08-01T10:51:58;1.13;;;0.50;;
25531;SDS011;13429;48.816;9.118;2023-08-01T10:54:25;0.60;;;0.40;;
25531;SDS011;13429;48.816;9.118;2023-08-01T10:56:51;1.27;;;0.45;;
25531;SDS011;13429;48.816;9.118;2023-08-01T10:59:18;2.17;;;0.65;;
25531;SDS011;13429;48.816;9.118;2023-08-01T11:01:48;1.02;;;0.38;;
25531;SDS011;13429;48.816;9.118;2023-08-01T11:04:23;0.55;;;0.30;;
25531;SDS011;13429;48.816;9.118;2023-08-01T11:06:52;0.80;;;0.50;;
25531;SDS011;13429;48.816;9.118;2023-08-01T11:09:24;0.75;;;0.43;;
25531;SDS011;13429;48.816;9.118;2023-08-01T11:12:00;2.30;;;0.80;;
25531;SDS011;13429;48.816;9.118;2023-08-01T11:14:26;0.93;;;0.60;;
25531;SDS011;13429;48.816;9.118;2023-08-01T11:16:56;2.03;;;0.60;;
25531;SDS011;13429;48.816;9.118;2023-08-01T11:19:27;2.10;;;0.50;;
25531;SDS011;13429;48.816;9.118;2023-08-01T11:21:53;1.10;;;0.90;;
25531;SDS011;13429;48.816;9.118;2023-08-01T11:24:23;2.58;;;0.60;;
25531;SDS011;13429;48.816;9.118;2023-08-01T11:26:49;3.17;;;0.57;;
25531;SDS011;13429;48.816;9.118;2023-08-01T11:29:16;0.88;;;0.70;;
25531;SDS011;13429;48.816;9.118;2023-08-01T11:31:52;1.83;;;0.60;;
25531;SDS011;13429;48.816;9.118;2023-08-01T11:34:18;1.50;;;0.80;;
25531;SDS011;13429;48.816;9.118;2023-08-01T11:36:45;1.95;;;0.82;;
25531;SDS011;13429;48.816;9.118;2023-08-01T11:39:11;3.15;;;1.17;;
25531;SDS011;13429;48.816;9.118;2023-08-01T11:41:38;0.90;;;0.55;;
25531;SDS011;13429;48.816;9.118;2023-08-01T11:44:04;1.98;;;1.17;;
25531;SDS011;13429;48.816;9.118;2023-08-01T11:46:34;2.13;;;0.82;;
25531;SDS011;13429;48.816;9.118;2023-08-01T11:49:01;3.20;;;0.80;;
25531;SDS011;13429;48.816;9.118;2023-08-01T11:51:27;3.10;;;1.30;;
25531;SDS011;13429;48.816;9.118;2023-08-01T11:54:03;2.35;;;1.08;;
25531;SDS011;13429;48.816;9.118;2023-08-01T11:56:32;3.72;;;0.70;;
25531;SDS011;13429;48.816;9.118;2023-08-01T11:58:58;3.30;;;1.33;;
25531;SDS011;13429;48.816;9.118;2023-08-01T12:01:24;1.60;;;0.75;;
25531;SDS011;13429;48.816;9.118;2023-08-01T12:03:54;2.03;;;0.88;;
25531;SDS011;13429;48.816;9.118;2023-08-01T12:06:22;1.17;;;0.75;;
25531;SDS011;13429;48.816;9.118;2023-08-01T12:08:50;1.77;;;0.80;;
25531;SDS011;13429;48.816;9.118;2023-08-01T12:11:23;2.58;;;1.00;;
25531;SDS011;13429;48.816;9.118;2023-08-01T12:14:06;1.58;;;0.80;;
25531;SDS011;13429;48.816;9.118;2023-08-01T12:16:34;2.92;;;1.00;;
25531;SDS011;13429;48.816;9.118;2023-08-01T12:19:00;1.83;;;1.10;;
25531;SDS011;13429;48.816;9.118;2023-08-01T12:21:26;3.00;;;1.10;;
25531;SDS011;13429;48.816;9.118;2023-08-01T12:23:52;2.25;;;1.10;;
25531;SDS011;13429;48.816;9.118;2023-08-01T12:26:18;3.20;;;1.20;;
25531;SDS011;13429;48.816;9.118;2023-08-01T12:28:44;1.80;;;0.98;;
25531;SDS011;13429;48.816;9.118;2023-08-01T12:31:15;1.95;;;0.73;;
25531;SDS011;13429;48.816;9.118;2023-08-01T12:33:41;3.70;;;1.25;;
25531;SDS011;13429;48.816;9.118;2023-08-01T12:36:07;1.65;;;0.90;;
25531;SDS011;13429;48.816;9.118;2023-08-01T12:38:33;2.22;;;1.00;;
25531;SDS011;13429;48.816;9.118;2023-08-01T12:41:00;2.63;;;0.70;;
25531;SDS011;13429;48.816;9.118;2023-08-01T12:43:26;1.90;;;0.95;;
25531;SDS011;13429;48.816;9.118;2023-08-01T12:45:52;1.65;;;0.85;;
25531;SDS011;13429;48.816;9.118;2023-08-01T12:48:20;1.40;;;0.75;;
25531;SDS011;13429;48.816;9.118;2023-08-01T12:50:46;2.00;;;1.27;;
25531;SDS011;13429;48.816;9.118;2023-08-01T12:53:13;3.05;;;0.80;;
25531;SDS011;13429;48.816;9.118;2023-08-01T12:55:46;2.88;;;1.10;;
25531;SDS011;13429;48.816;9.118;2023-08-01T12:58:12;1.90;;;0.90;;
25531;SDS011;13429;48.816;9.118;2023-08-01T13:00:39;3.35;;;1.30;;
25531;SDS011;13429;48.816;9.118;2023-08-01T13:03:05;1.60;;;0.77;;
25531;SDS011;13429;48.816;9.118;2023-08-01T13:05:37;3.03;;;1.00;;
25531;SDS011;13429;48.816;9.118;2023-08-01T13:08:03;1.55;;;1.00;;
25531;SDS011;13429;48.816;9.118;2023-08-01T13:10:30;2.55;;;1.25;;
25531;SDS011;13429;48.816;9.118;2023-08-01T13:12:56;3.15;;;1.58;;
25531;SDS011;13429;48.816;9.118;2023-08-01T13:15:23;1.65;;;0.82;;
25531;SDS011;13429;48.816;9.118;2023-08-01T13:17:49;1.60;;;0.85;;
25531;SDS011;13429;48.816;9.118;2023-08-01T13:20:15;1.45;;;0.90;;
25531;SDS011;13429;48.816;9.118;2023-08-01T13:22:41;2.78;;;1.10;;
25531;SDS011;13429;48.816;9.118;2023-08-01T13:25:07;1.85;;;1.05;;
25531;SDS011;13429;48.816;9.118;2023-08-01T13:27:36;2.20;;;1.30;;
25531;SDS011;13429;48.816;9.118;2023-08-01T13:30:02;2.85;;;1.40;;
25531;SDS011;13429;48.816;9.118;2023-08-01T13:32:29;2.15;;;1.10;;
25531;SDS011;13429;48.816;9.118;2023-08-01T13:34:55;3.13;;;1.10;;
25531;SDS011;13429;48.816;9.118;2023-08-01T13:37:21;1.55;;;1.02;;
25531;SDS011;13429;48.816;9.118;2023-08-01T13:39:47;2.40;;;0.90;;
25531;SDS011;13429;48.816;9.118;2023-08-01T13:42:13;2.15;;;1.20;;
25531;SDS011;13429;48.816;9.118;2023-08-01T13:44:39;1.58;;;0.88;;
25531;SDS011;13429;48.816;9.118;2023-08-01T13:47:06;4.22;;;1.13;;
25531;SDS011;13429;48.816;9.118;2023-08-01T13:49:32;3.70;;;1.52;;
25531;SDS011;13429;48.816;9.118;2023-08-01T13:51:58;3.95;;;1.27;;
25531;SDS011;13429;48.816;9.118;2023-08-01T13:54:24;1.92;;;1.10;;
25531;SDS011;13429;48.816;9.118;2023-08-01T13:56:50;2.63;;;1.25;;
25531;SDS011;13429;48.816;9.118;2023-08-01T13:59:16;1.85;;;0.82;;
25531;SDS011;13429;48.816;9.118;2023-08-01T14:01:42;2.83;;;1.30;;
25531;SDS011;13429;48.816;9.118;2023-08-01T14:04:08;5.35;;;1.33;;
25531;SDS011;13429;48.816;9.118;2023-08-01T14:06:34;1.92;;;1.02;;
25531;SDS011;13429;48.816;9.118;2023-08-01T14:09:00;2.92;;;0.90;;
25531;SDS011;13429;48.816;9.118;2023-08-01T14:11:27;3.33;;;0.95;;
25531;SDS011;13429;48.816;9.118;2023-08-01T14:13:53;1.55;;;0.90;;
25531;SDS011;13429;48.816;9.118;2023-08-01T14:16:19;3.55;;;1.30;;
25531;SDS011;13429;48.816;9.118;2023-08-01T14:18:46;1.23;;;0.75;;
25531;SDS011;13429;48.816;9.118;2023-08-01T14:21:12;1.50;;;0.90;;
25531;SDS011;13429;48.816;9.118;2023-08-01T14:23:38;1.95;;;0.90;;
25531;SDS011;13429;48.816;9.118;2023-08-01T14:26:05;2.92;;;0.90;;
25531;SDS011;13429;48.816;9.118;2023-08-01T14:28:31;2.03;;;0.85;;
25531;SDS011;13429;48.816;9.118;2023-08-01T14:30:59;2.05;;;1.20;;
25531;SDS011;13429;48.816;9.118;2023-08-01T14:33:26;3.10;;;0.98;;
25531;SDS011;13429;48.816;9.118;2023-08-01T14:35:53;1.13;;;0.70;;
25531;SDS011;13429;48.816;9.118;2023-08-01T14:38:19;2.67;;;0.95;;
25531;SDS011;13429;48.816;9.118;2023-08-01T14:40:45;4.50;;;1.20;;
25531;SDS011;13429;48.816;9.118;2023-08-01T14:43:11;5.65;;;1.02;;
25531;SDS011;13429;48.816;9.118;2023-08-01T14:45:37;1.88;;;1.02;;
25531;SDS011;13429;48.816;9.118;2023-08-01T14:48:04;2.85;;;0.88;;
25531;SDS011;13429;48.816;9.118;2023-08-01T14:50:30;1.90;;;1.02;;